Time;durP1;ratioP1;P1;durP2;ratioP2;P2;SDS_P1;SDS_P2;PMS_P1;PMS_P2;Temp;Humidity;BMP_temperature;BMP_pressure;BME280_temperature;BME280_humidity;BME280_pressure;Samples;Min_cycle;Max_cycle;Signal;HPM_P1;HPM_P2
2022/12/09 00:01:33;;;;;;;18.00;12.90;;;5.20;99.90;;;;;;4883394;29;20052;-70
2022/12/09 00:03:59;;;;;;;19.77;14.32;;;5.10;99.90;;;;;;4881231;29;20127;-71
2022/12/09 00:06:27;;;;;;;17.42;13.63;;;5.10;99.90;;;;;;4883408;29;20040;-71
2022/12/09 00:08:53;;;;;;;18.15;13.27;;;5.00;99.90;;;;;;4896137;29;20091;-70
2022/12/09 00:11:20;;;;;;;18.08;13.13;;;5.00;99.90;;;;;;4874073;29;20036;-70
2022/12/09 00:13:50;;;;;;;17.60;13.45;;;5.10;99.90;;;;;;4901914;29;20028;-70
2022/12/09 00:16:16;;;;;;;23.92;14.25;;;5.10;99.90;;;;;;4900043;29;20024;-70
2022/12/09 00:18:42;;;;;;;16.20;12.38;;;5.10;99.90;;;;;;4897545;29;20524;-70
2022/12/09 00:21:16;;;;;;;16.17;12.52;;;5.10;99.90;;;;;;4903437;29;20036;-71
2022/12/09 00:23:41;;;;;;;16.52;12.43;;;5.00;99.90;;;;;;4900030;29;20183;-70
2022/12/09 00:26:07;;;;;;;16.13;12.52;;;5.00;99.90;;;;;;4894250;29;20580;-70
2022/12/09 00:28:33;;;;;;;17.70;12.95;;;5.00;99.90;;;;;;4898587;29;21055;-70
2022/12/09 00:31:03;;;;;;;15.93;13.05;;;5.00;99.90;;;;;;4897162;29;20044;-70
2022/12/09 00:33:29;;;;;;;19.65;13.85;;;5.10;99.90;;;;;;4894639;29;20373;-68
2022/12/09 00:36:01;;;;;;;17.85;13.88;;;5.00;99.90;;;;;;4892525;29;20040;-69
2022/12/09 00:38:27;;;;;;;19.58;13.57;;;5.00;99.90;;;;;;4888453;29;20179;-69
2022/12/09 00:40:52;;;;;;;25.67;16.40;;;5.00;99.90;;;;;;4897075;29;20100;-69
2022/12/09 00:43:18;;;;;;;24.45;15.02;;;5.10;99.90;;;;;;4896717;29;20445;-68
2022/12/09 00:45:44;;;;;;;20.67;14.73;;;5.10;99.90;;;;;;4896609;29;20032;-69
2022/12/09 00:48:09;;;;;;;22.13;15.13;;;5.10;99.90;;;;;;4897786;29;20067;-69
2022/12/09 00:50:35;;;;;;;20.75;15.23;;;5.10;99.90;;;;;;4894160;29;20091;-70
2022/12/09 00:53:00;;;;;;;18.67;15.00;;;5.10;99.90;;;;;;4892722;29;20997;-71
2022/12/09 00:55:26;;;;;;;20.63;14.45;;;5.20;99.90;;;;;;4896865;29;20493;-70
2022/12/09 00:57:52;;;;;;;21.10;15.68;;;5.00;99.90;;;;;;4888579;29;20076;-70
2022/12/09 01:00:18;;;;;;;18.42;14.60;;;4.90;99.90;;;;;;4891901;29;20514;-70
2022/12/09 01:02:43;;;;;;;19.70;13.15;;;4.70;99.90;;;;;;4886772;29;20036;-71
2022/12/09 01:05:09;;;;;;;16.90;11.82;;;4.80;99.90;;;;;;4881612;29;20032;-72
2022/12/09 01:07:36;;;;;;;16.90;11.48;;;4.80;99.90;;;;;;4879213;29;20099;-71
2022/12/09 01:10:03;;;;;;;15.38;11.93;;;4.90;99.90;;;;;;4879532;29;20060;-70
2022/12/09 01:12:28;;;;;;;15.40;11.85;;;4.90;99.90;;;;;;4887066;29;20028;-69
2022/12/09 01:14:54;;;;;;;17.63;12.90;;;5.00;99.90;;;;;;4883102;29;21892;-70
2022/12/09 01:17:20;;;;;;;15.82;12.00;;;5.00;99.90;;;;;;4881801;29;20814;-69
2022/12/09 01:19:46;;;;;;;17.20;13.10;;;5.10;99.90;;;;;;4887922;29;20040;-69
2022/12/09 01:22:11;;;;;;;16.42;12.68;;;5.10;99.90;;;;;;4871791;29;20055;-69
2022/12/09 01:24:37;;;;;;;15.40;11.70;;;5.00;99.90;;;;;;4892196;29;20580;-69
2022/12/09 01:27:03;;;;;;;16.98;12.25;;;5.10;99.90;;;;;;4894208;29;20068;-72
2022/12/09 01:29:28;;;;;;;16.73;12.55;;;5.10;99.90;;;;;;4892344;29;20035;-72
2022/12/09 01:31:54;;;;;;;16.48;12.18;;;5.10;99.90;;;;;;4890774;29;20043;-72
2022/12/09 01:34:20;;;;;;;16.27;12.77;;;5.10;99.90;;;;;;4893975;29;20040;-72
2022/12/09 01:36:49;;;;;;;17.10;12.80;;;5.10;99.90;;;;;;4874370;29;20112;-72
2022/12/09 01:39:15;;;;;;;19.05;13.13;;;5.20;99.90;;;;;;4895429;29;20028;-72
2022/12/09 01:41:41;;;;;;;16.65;12.73;;;5.10;99.90;;;;;;4895409;29;20044;-72
2022/12/09 01:44:16;;;;;;;15.48;12.30;;;5.00;99.90;;;;;;4896041;29;20024;-72
2022/12/09 01:46:42;;;;;;;15.45;12.65;;;5.00;99.90;;;;;;4894500;29;20040;-69
2022/12/09 01:49:10;;;;;;;15.93;12.80;;;4.90;99.90;;;;;;4891036;29;20087;-69
2022/12/09 01:51:37;;;;;;;16.92;12.73;;;4.80;99.90;;;;;;4890348;29;20027;-69
2022/12/09 01:54:03;;;;;;;16.38;12.52;;;4.70;99.90;;;;;;4892957;29;20128;-68
2022/12/09 01:56:34;;;;;;;19.80;13.18;;;4.70;99.90;;;;;;4894200;29;20907;-69
2022/12/09 01:59:04;;;;;;;17.27;12.95;;;4.80;99.90;;;;;;4890953;29;20084;-69
2022/12/09 02:01:30;;;;;;;17.77;13.52;;;4.70;99.90;;;;;;4892265;29;20671;-69
2022/12/09 02:03:55;;;;;;;20.10;13.82;;;4.60;99.90;;;;;;4889488;29;20043;-69
2022/12/09 02:06:21;;;;;;;17.05;13.70;;;4.50;99.90;;;;;;4890999;29;21286;-69
2022/12/09 02:08:48;;;;;;;16.80;13.10;;;4.40;99.90;;;;;;4898447;29;20028;-69
2022/12/09 02:11:42;;;;;;;19.77;13.65;;;4.40;99.90;;;;;;4895353;29;20023;-68
2022/12/09 02:14:24;;;;;;;17.48;13.27;;;4.40;99.90;;;;;;4893398;29;20036;-69
2022/12/09 02:16:49;;;;;;;18.73;13.48;;;4.40;99.90;;;;;;4896394;29;20032;-69
2022/12/09 02:19:42;;;;;;;19.40;14.65;;;4.50;99.90;;;;;;4896976;29;20037;-68
2022/12/09 02:22:11;;;;;;;19.10;14.07;;;4.50;99.90;;;;;;4902223;29;20040;-69
2022/12/09 02:24:42;;;;;;;21.23;14.30;;;4.50;99.90;;;;;;4895009;29;20052;-69
2022/12/09 02:27:16;;;;;;;21.35;15.18;;;4.40;99.90;;;;;;4898230;29;20064;-69
2022/12/09 02:30:03;;;;;;;19.13;13.93;;;4.50;99.90;;;;;;4893155;29;20091;-69
2022/12/09 02:32:53;;;;;;;20.38;15.13;;;4.40;99.90;;;;;;4896423;29;20032;-68
2022/12/09 02:35:30;;;;;;;20.08;14.20;;;4.40;99.90;;;;;;4894250;29;20738;-68
2022/12/09 02:38:13;;;;;;;21.63;15.55;;;4.40;99.90;;;;;;4896402;29;20036;-69
2022/12/09 02:40:59;;;;;;;19.75;14.23;;;4.40;99.90;;;;;;4897249;29;20035;-69
2022/12/09 02:43:31;;;;;;;19.77;14.13;;;4.40;99.90;;;;;;4894370;29;20036;-69
2022/12/09 02:45:59;;;;;;;19.02;14.27;;;4.40;99.90;;;;;;4896921;29;20032;-69
2022/12/09 02:48:30;;;;;;;20.73;14.85;;;4.50;99.90;;;;;;4896763;29;20560;-69
2022/12/09 02:50:57;;;;;;;18.15;14.57;;;4.60;99.90;;;;;;4901207;29;20551;-69
2022/12/09 02:53:24;;;;;;;19.95;15.15;;;4.60;99.90;;;;;;4892504;29;20175;-69
2022/12/09 02:55:52;;;;;;;20.90;15.13;;;4.50;99.90;;;;;;4893258;29;20071;-69
2022/12/09 02:58:18;;;;;;;22.92;15.13;;;4.60;99.90;;;;;;4897178;29;20493;-68
2022/12/09 03:00:43;;;;;;;19.23;14.88;;;4.60;99.90;;;;;;4897502;29;20047;-69
2022/12/09 03:03:15;;;;;;;19.75;15.18;;;4.70;99.90;;;;;;4890401;29;20095;-68
2022/12/09 03:06:05;;;;;;;21.13;15.75;;;4.80;99.90;;;;;;4895441;29;20032;-68
2022/12/09 03:09:01;;;;;;;21.88;14.98;;;4.80;99.90;;;;;;4894782;29;20039;-69
2022/12/09 03:11:28;;;;;;;22.05;15.80;;;4.80;99.90;;;;;;4894300;29;20039;-68
2022/12/09 03:14:03;;;;;;;21.75;16.02;;;4.90;99.90;;;;;;4898242;29;20035;-69
2022/12/09 03:16:46;;;;;;;22.60;16.40;;;4.90;99.90;;;;;;4892420;29;20032;-68
2022/12/09 03:19:24;;;;;;;20.55;14.75;;;5.00;99.90;;;;;;4895779;29;20067;-69
2022/12/09 03:21:53;;;;;;;20.67;15.55;;;5.00;99.90;;;;;;4895629;29;20036;-69
2022/12/09 03:24:26;;;;;;;20.73;15.30;;;5.00;99.90;;;;;;4896296;29;20540;-68
2022/12/09 03:26:53;;;;;;;23.25;17.02;;;4.90;99.90;;;;;;4892057;29;20044;-68
2022/12/09 03:29:23;;;;;;;21.25;15.57;;;4.80;99.90;;;;;;4893354;29;20032;-69
2022/12/09 03:31:50;;;;;;;20.70;15.35;;;4.80;99.90;;;;;;4893980;29;20047;-69
2022/12/09 03:34:21;;;;;;;23.05;14.82;;;4.80;99.90;;;;;;4895772;29;20082;-69
2022/12/09 03:36:50;;;;;;;20.97;15.37;;;4.80;99.90;;;;;;4891544;29;20032;-69
2022/12/09 03:39:20;;;;;;;21.27;15.18;;;4.60;99.90;;;;;;4894610;29;20076;-69
2022/12/09 03:41:54;;;;;;;21.70;15.35;;;4.60;99.90;;;;;;4896578;29;20073;-69
2022/12/09 03:44:22;;;;;;;20.77;15.02;;;4.50;99.90;;;;;;4886451;29;20588;-69
2022/12/09 03:46:48;;;;;;;21.33;15.32;;;4.60;99.90;;;;;;4892181;29;20028;-69
2022/12/09 03:49:14;;;;;;;21.88;15.25;;;4.60;99.90;;;;;;4892874;29;20042;-69
2022/12/09 03:51:50;;;;;;;21.52;16.52;;;4.60;99.90;;;;;;4893838;29;20047;-68
2022/12/09 03:54:28;;;;;;;24.00;16.77;;;4.70;99.90;;;;;;4893361;29;20100;-69
2022/12/09 03:56:56;;;;;;;23.70;16.88;;;4.70;99.90;;;;;;4892081;29;20046;-69
2022/12/09 03:59:26;;;;;;;20.48;15.57;;;4.80;99.90;;;;;;4893788;29;20031;-69
2022/12/09 04:01:53;;;;;;;24.67;16.77;;;4.80;99.90;;;;;;4893594;29;20463;-69
2022/12/09 04:04:19;;;;;;;21.67;17.25;;;4.80;99.90;;;;;;4892760;29;20517;-69
2022/12/09 04:06:53;;;;;;;23.58;16.70;;;4.80;99.90;;;;;;4890949;29;20692;-69
2022/12/09 04:09:18;;;;;;;24.08;17.40;;;4.80;99.90;;;;;;4896187;29;20079;-69
2022/12/09 04:11:44;;;;;;;22.90;16.85;;;4.80;99.90;;;;;;4893298;29;20036;-69
2022/12/09 04:14:10;;;;;;;25.02;17.05;;;4.80;99.90;;;;;;4892617;29;20035;-73
2022/12/09 04:16:35;;;;;;;21.63;15.68;;;4.80;99.90;;;;;;4876214;29;20036;-72
2022/12/09 04:19:01;;;;;;;22.75;15.95;;;4.70;99.90;;;;;;4896010;29;20040;-73
2022/12/09 04:21:27;;;;;;;23.33;16.60;;;4.70;99.90;;;;;;4895669;29;20036;-72
2022/12/09 04:23:52;;;;;;;24.23;17.85;;;4.70;99.90;;;;;;4895264;29;20071;-72
2022/12/09 04:26:21;;;;;;;23.35;17.10;;;4.70;99.90;;;;;;4891942;29;20032;-73
2022/12/09 04:28:47;;;;;;;22.98;16.48;;;4.80;99.90;;;;;;4895576;29;20494;-72
2022/12/09 04:31:15;;;;;;;24.55;18.02;;;4.80;99.90;;;;;;4895066;29;20481;-72
2022/12/09 04:33:41;;;;;;;21.98;17.50;;;4.80;99.90;;;;;;4896271;29;20048;-72
2022/12/09 04:36:09;;;;;;;24.42;18.20;;;4.80;99.90;;;;;;4896318;29;20048;-73
2022/12/09 04:38:35;;;;;;;25.25;17.50;;;4.90;99.90;;;;;;4898055;29;20553;-72
2022/12/09 04:41:01;;;;;;;25.77;17.63;;;4.90;99.90;;;;;;4898243;29;20048;-72
2022/12/09 04:43:28;;;;;;;25.13;18.15;;;5.00;99.90;;;;;;4881318;29;20028;-72
2022/12/09 04:45:53;;;;;;;27.33;18.88;;;5.00;99.90;;;;;;4900204;29;20370;-72
2022/12/09 04:48:19;;;;;;;23.77;18.58;;;5.00;99.90;;;;;;4896997;29;20060;-72
2022/12/09 04:50:45;;;;;;;24.95;18.35;;;5.00;99.90;;;;;;4897022;29;20043;-72
2022/12/09 04:53:10;;;;;;;23.48;17.15;;;5.00;99.90;;;;;;4893474;29;20079;-73
2022/12/09 04:55:36;;;;;;;28.40;17.95;;;5.00;99.90;;;;;;4902690;29;20032;-73
2022/12/09 04:58:02;;;;;;;23.02;16.92;;;5.10;99.90;;;;;;4900713;29;20051;-72
2022/12/09 05:00:27;;;;;;;25.45;18.58;;;5.00;99.90;;;;;;4904276;29;20477;-72
2022/12/09 05:02:53;;;;;;;27.50;19.10;;;5.00;99.90;;;;;;4900272;29;20111;-72
2022/12/09 05:05:18;;;;;;;29.77;20.00;;;5.10;99.90;;;;;;4898405;29;20091;-72
2022/12/09 05:07:44;;;;;;;30.40;20.83;;;5.10;99.90;;;;;;4896498;29;20028;-73
2022/12/09 05:10:10;;;;;;;33.10;22.85;;;5.10;99.90;;;;;;4890827;29;20028;-72
2022/12/09 05:12:35;;;;;;;35.33;22.92;;;5.20;99.90;;;;;;4900087;29;20035;-72
2022/12/09 05:15:02;;;;;;;32.58;21.85;;;5.10;99.90;;;;;;4900684;29;20799;-72
2022/12/09 05:17:27;;;;;;;29.33;21.17;;;5.10;99.90;;;;;;4898880;29;20096;-72
2022/12/09 05:19:53;;;;;;;33.20;22.67;;;5.10;99.90;;;;;;4902501;29;20035;-73
2022/12/09 05:22:19;;;;;;;30.85;20.38;;;5.10;99.90;;;;;;4903483;29;20052;-73
2022/12/09 05:24:45;;;;;;;29.25;20.23;;;5.20;99.90;;;;;;4902525;29;20054;-72
2022/12/09 05:27:12;;;;;;;28.77;20.63;;;5.20;99.90;;;;;;4900122;29;20028;-73
2022/12/09 05:29:38;;;;;;;30.95;20.38;;;5.10;99.90;;;;;;4905089;29;20017;-73
2022/12/09 05:32:04;;;;;;;27.95;20.10;;;5.10;99.90;;;;;;4896601;29;21002;-72
2022/12/09 05:34:30;;;;;;;24.42;18.30;;;5.10;99.90;;;;;;4891504;29;20036;-72
2022/12/09 05:36:55;;;;;;;24.52;17.70;;;5.10;99.90;;;;;;4894810;29;20028;-72
2022/12/09 05:39:21;;;;;;;25.20;17.95;;;5.10;99.90;;;;;;4894681;29;20024;-73
2022/12/09 05:41:47;;;;;;;25.52;17.10;;;5.20;99.90;;;;;;4894516;29;20492;-71
2022/12/09 05:44:13;;;;;;;25.02;16.48;;;5.10;99.90;;;;;;4894785;29;20036;-72
2022/12/09 05:46:38;;;;;;;22.75;17.15;;;5.20;99.90;;;;;;4893518;29;20512;-72
2022/12/09 05:49:04;;;;;;;23.88;17.48;;;5.20;99.90;;;;;;4894242;29;20052;-70
2022/12/09 05:51:31;;;;;;;22.60;17.60;;;5.20;99.90;;;;;;4880184;29;20038;-70
2022/12/09 05:54:00;;;;;;;23.98;17.08;;;5.30;99.90;;;;;;4892172;29;20067;-71
2022/12/09 05:56:26;;;;;;;24.52;18.13;;;5.30;99.90;;;;;;4888930;29;20119;-70
2022/12/09 05:58:52;;;;;;;22.55;17.10;;;5.20;99.90;;;;;;4890508;29;20059;-71
2022/12/09 06:01:19;;;;;;;25.35;18.63;;;5.20;99.90;;;;;;4898340;29;20095;-71
2022/12/09 06:03:49;;;;;;;30.48;22.05;;;5.10;99.90;;;;;;4894264;29;20063;-71
2022/12/09 06:06:17;;;;;;;29.08;21.17;;;5.10;99.90;;;;;;4885281;29;20040;-72
2022/12/09 06:08:44;;;;;;;28.50;20.02;;;5.10;99.90;;;;;;4890264;29;20032;-72
2022/12/09 06:11:19;;;;;;;26.48;19.13;;;5.10;99.90;;;;;;4896025;29;20035;-72
2022/12/09 06:13:46;;;;;;;29.02;20.90;;;5.10;99.90;;;;;;4892526;29;20032;-72
2022/12/09 06:16:13;;;;;;;28.38;20.02;;;5.10;99.90;;;;;;4891676;29;20032;-71
2022/12/09 06:18:38;;;;;;;32.20;21.40;;;5.10;99.90;;;;;;4892750;29;20024;-72
2022/12/09 06:21:09;;;;;;;28.33;19.58;;;5.10;99.90;;;;;;4886310;29;20040;-69
2022/12/09 06:23:36;;;;;;;27.85;20.40;;;5.10;99.90;;;;;;4880040;29;20594;-69
2022/12/09 06:26:03;;;;;;;31.45;19.90;;;5.10;99.90;;;;;;4887501;29;20752;-69
2022/12/09 06:28:29;;;;;;;29.85;19.25;;;5.10;99.90;;;;;;4889626;29;20051;-69
2022/12/09 06:30:56;;;;;;;29.08;19.80;;;5.10;99.90;;;;;;4894196;29;20036;-69
2022/12/09 06:33:22;;;;;;;29.63;20.17;;;5.10;99.90;;;;;;4889532;29;20036;-69
2022/12/09 06:35:47;;;;;;;29.63;20.10;;;5.10;99.90;;;;;;4887263;29;20079;-68
2022/12/09 06:38:13;;;;;;;28.50;19.90;;;5.00;99.90;;;;;;4872830;29;20135;-69
2022/12/09 06:40:42;;;;;;;30.55;20.27;;;5.00;99.90;;;;;;4892860;29;21264;-69
2022/12/09 06:43:09;;;;;;;30.33;20.00;;;5.10;99.90;;;;;;4892297;29;21293;-70
2022/12/09 06:45:36;;;;;;;30.02;20.67;;;5.10;99.90;;;;;;4890441;29;20447;-69
2022/12/09 06:48:02;;;;;;;30.15;19.73;;;5.10;99.90;;;;;;4900094;29;20044;-69
2022/12/09 06:50:28;;;;;;;36.65;24.23;;;5.10;99.90;;;;;;4896933;29;20139;-69
2022/12/09 06:52:53;;;;;;;32.88;20.90;;;5.20;99.90;;;;;;4891576;29;20063;-69
2022/12/09 06:55:19;;;;;;;29.77;19.35;;;5.20;99.90;;;;;;4901911;29;20110;-69
2022/12/09 06:57:45;;;;;;;29.88;20.33;;;5.20;99.90;;;;;;4901394;29;20643;-69
2022/12/09 07:00:11;;;;;;;31.05;20.90;;;5.20;99.90;;;;;;4888684;29;20390;-70
2022/12/09 07:02:37;;;;;;;30.35;20.88;;;5.20;99.90;;;;;;4898421;29;20044;-70
2022/12/09 07:05:03;;;;;;;31.30;20.83;;;5.20;99.90;;;;;;4884381;29;20051;-70
2022/12/09 07:07:29;;;;;;;28.60;19.10;;;5.20;99.90;;;;;;4900131;29;20038;-70
2022/12/09 07:09:54;;;;;;;33.03;22.45;;;5.20;99.90;;;;;;4897324;29;20066;-69
2022/12/09 07:12:20;;;;;;;32.90;22.95;;;5.10;99.90;;;;;;4898401;29;20595;-70
2022/12/09 07:14:45;;;;;;;31.58;21.20;;;5.00;99.90;;;;;;4897244;29;20048;-69
2022/12/09 07:17:16;;;;;;;32.00;21.73;;;5.00;99.90;;;;;;4900882;29;20036;-70
2022/12/09 07:19:41;;;;;;;31.52;21.27;;;4.90;99.90;;;;;;4896480;29;21024;-69
2022/12/09 07:22:07;;;;;;;32.28;22.13;;;5.00;99.90;;;;;;4904084;29;20550;-70
2022/12/09 07:24:32;;;;;;;33.92;22.00;;;5.00;99.90;;;;;;4896487;29;21656;-69
2022/12/09 07:26:58;;;;;;;34.22;22.70;;;5.00;99.90;;;;;;4907998;29;20048;-69
2022/12/09 07:29:24;;;;;;;34.67;23.08;;;5.10;99.90;;;;;;4885752;29;20500;-69
2022/12/09 07:31:49;;;;;;;36.97;22.48;;;5.10;99.90;;;;;;4894829;29;20059;-69
2022/12/09 07:34:15;;;;;;;39.33;23.55;;;5.10;99.90;;;;;;4908008;29;20031;-69
2022/12/09 07:36:41;;;;;;;37.42;23.08;;;5.20;99.90;;;;;;4905062;29;20437;-68
2022/12/09 07:39:15;;;;;;;37.55;23.92;;;5.20;99.90;;;;;;4905029;29;20032;-68
2022/12/09 07:41:41;;;;;;;36.50;24.65;;;5.20;99.90;;;;;;4899522;29;20091;-68
2022/12/09 07:44:06;;;;;;;44.25;28.90;;;5.20;99.90;;;;;;4896368;29;20025;-68
2022/12/09 07:46:32;;;;;;;42.58;26.55;;;5.20;99.90;;;;;;4903140;29;20568;-68
2022/12/09 07:49:00;;;;;;;39.47;24.27;;;5.20;99.90;;;;;;4901814;29;20441;-68
2022/12/09 07:51:25;;;;;;;35.60;23.15;;;5.10;99.90;;;;;;4902042;29;20617;-68
2022/12/09 07:53:51;;;;;;;35.72;22.92;;;5.20;99.90;;;;;;4896438;29;20052;-68
2022/12/09 07:56:18;;;;;;;37.45;23.90;;;5.20;99.90;;;;;;4902719;29;20472;-68
2022/12/09 07:58:49;;;;;;;39.00;24.20;;;5.10;99.90;;;;;;4895596;29;20036;-68
2022/12/09 08:01:21;;;;;;;39.83;25.40;;;5.10;99.90;;;;;;4901268;29;20028;-68
2022/12/09 08:03:48;;;;;;;38.88;23.00;;;5.10;99.90;;;;;;4898592;29;20043;-68
2022/12/09 08:06:16;;;;;;;36.65;23.35;;;5.10;99.90;;;;;;4893873;29;20043;-68
2022/12/09 08:08:42;;;;;;;55.33;37.47;;;5.10;99.90;;;;;;4898163;29;20095;-68
2022/12/09 08:11:17;;;;;;;41.83;27.25;;;5.10;99.90;;;;;;4898176;29;20043;-68
2022/12/09 08:13:42;;;;;;;38.25;26.10;;;5.10;99.90;;;;;;4901069;29;20151;-70
2022/12/09 08:16:10;;;;;;;43.90;25.65;;;5.10;99.90;;;;;;4896408;29;20036;-70
2022/12/09 08:18:37;;;;;;;52.83;32.65;;;5.10;99.90;;;;;;4899540;29;20064;-70
2022/12/09 08:21:05;;;;;;;49.30;31.10;;;5.10;99.90;;;;;;4900612;29;20445;-70
2022/12/09 08:23:31;;;;;;;41.00;25.77;;;5.20;99.90;;;;;;4894769;29;20028;-70
2022/12/09 08:25:58;;;;;;;40.05;26.13;;;5.20;99.90;;;;;;4894387;29;20024;-70
2022/12/09 08:28:24;;;;;;;39.53;25.73;;;5.20;99.90;;;;;;4896111;29;20044;-70
2022/12/09 08:30:50;;;;;;;41.97;26.33;;;5.20;99.90;;;;;;4896241;29;20036;-70
2022/12/09 08:33:16;;;;;;;43.92;26.20;;;5.10;99.90;;;;;;4897402;29;20051;-70
2022/12/09 08:35:42;;;;;;;42.08;26.65;;;5.10;99.90;;;;;;4895777;29;20627;-70
2022/12/09 08:38:08;;;;;;;46.35;28.48;;;5.10;99.90;;;;;;4881947;29;20268;-70
2022/12/09 08:40:34;;;;;;;43.35;25.65;;;5.00;99.90;;;;;;4902317;29;20048;-70
2022/12/09 08:43:02;;;;;;;45.42;27.35;;;5.10;99.90;;;;;;4900694;29;20117;-70
2022/12/09 08:45:27;;;;;;;45.25;27.23;;;5.00;99.90;;;;;;4902488;29;20055;-70
2022/12/09 08:47:53;;;;;;;48.90;28.67;;;5.10;99.90;;;;;;4898196;29;20028;-70
2022/12/09 08:50:18;;;;;;;45.53;30.15;;;5.10;99.90;;;;;;4902360;29;20036;-68
2022/12/09 08:52:44;;;;;;;46.65;26.52;;;5.10;99.90;;;;;;4904695;29;20453;-68
2022/12/09 08:55:10;;;;;;;42.13;27.20;;;5.10;99.90;;;;;;4891884;29;20045;-67
2022/12/09 08:57:35;;;;;;;40.17;26.52;;;5.10;99.90;;;;;;4894880;29;20565;-68
2022/12/09 09:00:02;;;;;;;41.58;24.73;;;5.10;99.90;;;;;;4897973;29;20028;-68
2022/12/09 09:02:27;;;;;;;38.80;24.98;;;5.10;99.90;;;;;;4898426;29;20040;-68
2022/12/09 09:04:53;;;;;;;35.92;22.83;;;5.20;99.90;;;;;;4897816;29;20084;-68
2022/12/09 09:07:18;;;;;;;41.38;27.35;;;5.30;99.90;;;;;;4888363;29;20039;-68
2022/12/09 09:09:44;;;;;;;39.72;23.73;;;5.30;99.90;;;;;;4900395;29;20054;-68
2022/12/09 09:12:10;;;;;;;34.42;23.10;;;5.30;99.90;;;;;;4897932;29;20068;-68
2022/12/09 09:14:35;;;;;;;41.75;24.63;;;5.30;99.90;;;;;;4897826;29;20520;-68
2022/12/09 09:17:01;;;;;;;37.83;25.45;;;5.30;99.90;;;;;;4904519;29;20028;-65
2022/12/09 09:19:27;;;;;;;33.10;22.45;;;5.40;99.90;;;;;;4900944;29;20040;-68
2022/12/09 09:21:53;;;;;;;37.85;24.83;;;5.50;99.90;;;;;;4901369;29;20050;-68
2022/12/09 09:24:21;;;;;;;37.35;24.02;;;5.50;99.90;;;;;;4900663;29;20026;-68
2022/12/09 09:26:49;;;;;;;42.85;29.60;;;5.50;99.90;;;;;;4897849;29;20039;-70
2022/12/09 09:29:17;;;;;;;37.30;24.83;;;5.50;99.90;;;;;;4894483;29;20036;-70
2022/12/09 09:31:42;;;;;;;34.55;23.77;;;5.50;99.90;;;;;;4907184;29;20036;-70
2022/12/09 09:34:09;;;;;;;35.78;25.10;;;5.60;99.90;;;;;;4898575;29;20607;-70
2022/12/09 09:36:34;;;;;;;36.63;24.77;;;5.60;99.90;;;;;;4903250;29;20112;-71
2022/12/09 09:39:00;;;;;;;35.70;22.70;;;5.60;99.90;;;;;;4898277;29;20077;-70
2022/12/09 09:41:42;;;;;;;35.70;23.20;;;5.60;99.90;;;;;;4904417;29;20039;-68
2022/12/09 09:44:31;;;;;;;30.33;21.08;;;5.60;99.90;;;;;;4895233;29;20072;-70
2022/12/09 09:46:58;;;;;;;31.67;21.98;;;5.70;99.90;;;;;;4899292;29;20032;-70
2022/12/09 09:49:45;;;;;;;35.05;23.20;;;5.60;99.90;;;;;;4900996;29;20035;-70
2022/12/09 09:52:18;;;;;;;50.28;23.27;;;5.70;99.90;;;;;;4894594;29;20489;-69
2022/12/09 09:54:44;;;;;;;37.22;24.23;;;5.70;99.90;;;;;;4897723;29;20148;-70
2022/12/09 09:57:22;;;;;;;38.65;23.90;;;5.60;99.90;;;;;;4903275;29;20044;-70
2022/12/09 10:00:02;;;;;;;33.00;21.92;;;5.60;99.90;;;;;;4898362;29;20044;-69
2022/12/09 10:03:01;;;;;;;35.45;22.60;;;5.70;99.90;;;;;;4900175;29;20131;-68
2022/12/09 10:05:54;;;;;;;29.42;22.00;;;5.70;99.90;;;;;;4889074;29;20786;-68
2022/12/09 10:08:34;;;;;;;31.35;21.65;;;5.70;99.90;;;;;;4891147;29;20036;-68
2022/12/09 10:11:33;;;;;;;31.85;22.05;;;5.60;99.90;;;;;;4899026;29;20060;-69
2022/12/09 10:14:26;;;;;;;30.77;21.48;;;5.50;99.90;;;;;;4897016;29;20040;-68
2022/12/09 10:17:00;;;;;;;33.05;21.95;;;5.50;99.90;;;;;;4901229;29;20034;-68
2022/12/09 10:19:39;;;;;;;28.90;20.30;;;5.60;99.90;;;;;;4902069;29;20032;-68
2022/12/09 10:22:15;;;;;;;27.25;18.77;;;5.60;99.90;;;;;;4882407;29;20055;-68
2022/12/09 10:24:49;;;;;;;35.08;18.98;;;5.70;99.90;;;;;;4894787;29;20548;-68
2022/12/09 10:27:29;;;;;;;26.90;17.30;;;5.70;99.90;;;;;;4891678;29;20041;-68
2022/12/09 10:30:05;;;;;;;39.25;17.00;;;5.70;99.90;;;;;;4894340;29;20426;-68
2022/12/09 10:32:34;;;;;;;22.75;17.35;;;5.70;99.90;;;;;;4901366;29;20028;-68
2022/12/09 10:35:00;;;;;;;22.67;16.30;;;5.70;99.90;;;;;;4898751;29;20028;-68
2022/12/09 10:37:31;;;;;;;20.40;15.75;;;5.70;99.90;;;;;;4899567;29;20075;-68
2022/12/09 10:40:06;;;;;;;19.02;15.43;;;5.80;99.90;;;;;;4900922;29;20059;-70
2022/12/09 10:45:33;;;;;;;20.92;13.80;;;5.70;99.90;;;;;;4899142;29;20091;-70
2022/12/09 10:47:59;;;;;;;19.73;15.15;;;5.80;99.90;;;;;;4895840;29;20029;-71
2022/12/09 10:50:32;;;;;;;18.35;13.93;;;5.70;99.90;;;;;;4897070;29;20039;-70
2022/12/09 10:53:05;;;;;;;16.50;13.10;;;5.70;99.90;;;;;;4887317;29;20103;-70
2022/12/09 10:55:36;;;;;;;17.13;13.60;;;5.70;99.90;;;;;;4895171;29;20025;-69
2022/12/09 10:58:17;;;;;;;15.87;12.93;;;5.80;99.90;;;;;;4896200;29;20039;-70
2022/12/09 11:00:55;;;;;;;16.10;11.90;;;5.80;99.90;;;;;;4894035;29;20568;-70
2022/12/09 11:03:30;;;;;;;15.55;12.05;;;5.90;99.90;;;;;;4880451;29;20295;-70
2022/12/09 11:06:26;;;;;;;15.50;12.13;;;5.90;99.90;;;;;;4896408;29;20036;-70
2022/12/09 11:09:01;;;;;;;16.73;12.73;;;5.80;99.90;;;;;;4893913;29;20055;-70
2022/12/09 11:11:44;;;;;;;16.33;12.52;;;5.70;99.90;;;;;;4892674;29;20023;-70
2022/12/09 11:14:28;;;;;;;23.85;17.10;;;5.80;99.90;;;;;;4901703;29;20059;-70
2022/12/09 11:16:58;;;;;;;22.33;15.95;;;5.70;99.90;;;;;;4890407;29;20040;-68
2022/12/09 11:19:33;;;;;;;21.67;15.85;;;5.50;99.90;;;;;;4892672;29;20119;-68
2022/12/09 11:22:21;;;;;;;23.48;16.65;;;5.50;99.90;;;;;;4898949;29;20075;-69
2022/12/09 11:24:47;;;;;;;23.83;16.42;;;5.60;99.90;;;;;;4899131;29;20024;-68
2022/12/09 11:27:29;;;;;;;23.42;18.25;;;5.50;99.90;;;;;;4892379;29;20051;-68
2022/12/09 11:30:24;;;;;;;22.58;16.17;;;5.50;99.90;;;;;;4901420;29;20038;-68
2022/12/09 11:32:58;;;;;;;22.23;16.98;;;5.50;99.90;;;;;;4876585;29;20056;-68
2022/12/09 11:35:44;;;;;;;22.30;16.10;;;5.50;99.90;;;;;;4894473;29;20799;-70
2022/12/09 11:38:12;;;;;;;21.35;15.82;;;5.50;99.90;;;;;;4900886;29;20063;-70
2022/12/09 11:40:38;;;;;;;21.60;16.27;;;5.60;99.90;;;;;;4899194;29;20032;-70
2022/12/09 11:43:04;;;;;;;22.13;15.45;;;5.70;99.90;;;;;;4893851;29;20032;-70
2022/12/09 11:45:34;;;;;;;21.60;16.58;;;5.70;99.90;;;;;;4896841;29;20083;-70
2022/12/09 11:48:06;;;;;;;23.75;17.42;;;5.70;99.90;;;;;;4893971;29;20053;-70
2022/12/09 11:50:35;;;;;;;23.95;17.27;;;5.70;99.90;;;;;;4882541;29;20036;-70
2022/12/09 11:53:27;;;;;;;21.30;15.95;;;5.70;99.90;;;;;;4881683;29;20536;-70
2022/12/09 11:56:06;;;;;;;21.08;14.75;;;5.70;99.90;;;;;;4889848;29;20067;-70
2022/12/09 11:58:45;;;;;;;19.65;14.68;;;5.80;99.90;;;;;;4890253;29;20036;-70
2022/12/09 12:01:18;;;;;;;21.15;15.82;;;5.80;99.90;;;;;;4885858;29;20037;-70
2022/12/09 12:03:50;;;;;;;21.60;15.55;;;5.80;99.90;;;;;;4898609;29;20457;-70
2022/12/09 12:06:25;;;;;;;18.17;14.48;;;5.80;99.90;;;;;;4897189;29;20039;-70
2022/12/09 12:09:04;;;;;;;18.20;14.52;;;5.80;99.90;;;;;;4903357;29;20068;-70
2022/12/09 12:12:01;;;;;;;19.50;14.88;;;5.70;99.90;;;;;;4895906;29;20631;-68
2022/12/09 12:14:28;;;;;;;20.90;16.00;;;5.70;99.90;;;;;;4888820;29;20488;-69
2022/12/09 12:16:57;;;;;;;331.90;194.68;;;5.70;99.90;;;;;;4887149;29;20036;-69
2022/12/09 12:19:34;;;;;;;34.72;25.00;;;5.60;99.90;;;;;;4891115;29;20055;-69
2022/12/09 12:22:26;;;;;;;244.43;143.82;;;5.40;99.90;;;;;;4897444;29;20051;-69
2022/12/09 12:25:12;;;;;;;264.25;201.30;;;5.30;99.90;;;;;;4877530;29;20075;-68
2022/12/09 12:27:53;;;;;;;26.80;22.95;;;5.30;99.90;;;;;;4881307;29;20119;-71
2022/12/09 12:30:22;;;;;;;52.97;44.55;;;5.30;99.90;;;;;;4890008;29;20032;-69
2022/12/09 12:33:25;;;;;;;27.95;23.27;;;5.20;99.90;;;;;;4895651;29;20389;-69
2022/12/09 12:36:00;;;;;;;27.92;23.02;;;5.30;99.90;;;;;;4884401;29;20051;-69
2022/12/09 12:38:53;;;;;;;23.88;20.20;;;5.20;99.90;;;;;;4886408;29;20032;-69
2022/12/09 12:41:35;;;;;;;25.60;22.98;;;5.20;99.90;;;;;;4879398;29;20523;-69
2022/12/09 12:46:57;;;;;;;20.63;17.15;;;5.20;99.90;;;;;;4891948;29;20561;-69
2022/12/09 12:49:47;;;;;;;13.35;11.95;;;5.20;99.90;;;;;;4885779;29;20032;-70
2022/12/09 12:52:31;;;;;;;30.83;21.73;;;5.10;99.90;;;;;;4885792;29;20032;-70
2022/12/09 12:55:16;;;;;;;98.68;78.68;;;5.10;99.90;;;;;;4883833;29;20049;-70
2022/12/09 12:58:00;;;;;;;93.00;79.50;;;5.10;99.90;;;;;;4889117;29;20482;-70